Time;durP1;ratioP1;P1;durP2;ratioP2;P2;SDS_P1;SDS_P2;PMS_P1;PMS_P2;Temp;Humidity;BMP_temperature;BMP_pressure;BME280_temperature;BME280_humidity;BME280_pressure;Samples;Min_cycle;Max_cycle;Signal;HPM_P1;HPM_P2
2023/12/14 00:02:08;;;;;;;4.88;2.72;;;9.30;86.00;;;;;;5040235;28;20032;-69
2023/12/14 00:04:33;;;;;;;4.85;2.70;;;9.30;86.10;;;;;;5034219;28;20547;-59
2023/12/14 00:06:59;;;;;;;3.80;2.55;;;9.30;86.10;;;;;;5039760;28;20053;-59
2023/12/14 00:09:25;;;;;;;5.03;3.33;;;9.30;85.90;;;;;;5045742;28;20033;-58
2023/12/14 00:11:50;;;;;;;6.47;3.00;;;9.30;86.00;;;;;;5047974;28;20025;-58
2023/12/14 00:14:16;;;;;;;5.75;2.95;;;9.20;86.00;;;;;;5049215;28;20024;-59
2023/12/14 00:16:42;;;;;;;5.38;2.85;;;9.20;86.10;;;;;;5050354;28;20036;-69
2023/12/14 00:19:07;;;;;;;3.70;2.53;;;9.20;85.90;;;;;;5044195;28;20482;-69
2023/12/14 00:21:33;;;;;;;4.82;3.08;;;9.20;86.00;;;;;;5051468;28;20507;-69
2023/12/14 00:23:59;;;;;;;7.05;3.38;;;9.10;85.90;;;;;;5045829;28;20035;-69
2023/12/14 00:26:24;;;;;;;5.22;2.45;;;9.10;86.00;;;;;;5056164;28;20033;-69
2023/12/14 00:28:50;;;;;;;6.63;3.35;;;9.10;86.10;;;;;;5057262;28;20040;-58
2023/12/14 00:31:17;;;;;;;5.78;3.17;;;9.00;86.10;;;;;;5052880;28;20440;-69
2023/12/14 00:33:43;;;;;;;5.40;3.45;;;9.00;86.00;;;;;;5043795;28;20021;-58
2023/12/14 00:36:09;;;;;;;5.63;3.28;;;9.00;86.10;;;;;;5052759;28;20021;-58
2023/12/14 00:38:34;;;;;;;5.65;2.85;;;9.10;85.90;;;;;;5057022;28;20134;-59
2023/12/14 00:41:00;;;;;;;4.97;2.67;;;9.00;85.90;;;;;;5051623;28;20039;-59
2023/12/14 00:43:26;;;;;;;4.45;2.40;;;9.00;86.00;;;;;;5061409;28;20028;-58
2023/12/14 00:45:52;;;;;;;3.55;2.75;;;8.90;86.00;;;;;;5042251;28;20443;-58
2023/12/14 00:48:18;;;;;;;5.07;3.10;;;8.90;86.10;;;;;;5054362;28;20476;-58
2023/12/14 00:50:43;;;;;;;4.88;3.03;;;8.90;86.20;;;;;;5052173;28;20021;-59
2023/12/14 00:53:09;;;;;;;4.65;3.17;;;8.90;86.20;;;;;;5054713;28;20054;-58
2023/12/14 00:55:35;;;;;;;5.57;2.97;;;8.90;86.00;;;;;;5058338;28;20048;-58
2023/12/14 00:58:00;;;;;;;6.53;3.05;;;8.90;86.10;;;;;;5049784;28;20098;-58
2023/12/14 01:00:26;;;;;;;5.25;3.08;;;8.90;86.00;;;;;;5049734;28;20029;-58
2023/12/14 01:02:52;;;;;;;8.52;4.30;;;9.00;86.00;;;;;;5053110;28;20036;-59
2023/12/14 01:05:17;;;;;;;5.03;2.38;;;9.00;85.80;;;;;;5056928;28;20024;-59
2023/12/14 01:07:43;;;;;;;5.38;3.05;;;8.90;85.80;;;;;;5055880;28;20052;-58
2023/12/14 01:10:10;;;;;;;5.47;2.92;;;8.90;86.40;;;;;;5049887;28;20041;-59
2023/12/14 01:12:36;;;;;;;3.15;2.17;;;8.90;85.60;;;;;;5048781;28;20079;-59
2023/12/14 01:15:02;;;;;;;4.57;2.90;;;8.80;85.70;;;;;;5054147;28;20403;-59
2023/12/14 01:17:28;;;;;;;4.00;2.58;;;8.90;85.80;;;;;;5065767;28;20120;-58
2023/12/14 01:19:54;;;;;;;4.45;2.40;;;8.80;85.70;;;;;;5055121;28;20044;-58
2023/12/14 01:22:20;;;;;;;4.70;3.05;;;8.80;85.60;;;;;;5062762;28;20029;-58
2023/12/14 01:24:45;;;;;;;5.97;3.00;;;8.80;85.70;;;;;;5055861;28;20028;-59
2023/12/14 01:27:13;;;;;;;2.92;2.20;;;8.90;85.60;;;;;;5042963;28;20036;-59
2023/12/14 01:29:39;;;;;;;3.83;2.15;;;8.90;85.60;;;;;;5048281;28;20033;-58
2023/12/14 01:32:05;;;;;;;5.68;3.20;;;8.90;85.50;;;;;;5042636;28;20099;-59
2023/12/14 01:34:31;;;;;;;5.40;2.67;;;8.90;85.50;;;;;;5060948;28;20028;-58
2023/12/14 01:36:57;;;;;;;3.78;2.70;;;8.90;85.50;;;;;;5055534;28;20387;-58
2023/12/14 01:39:22;;;;;;;4.20;2.28;;;8.90;85.40;;;;;;5049969;28;20040;-58
2023/12/14 01:41:49;;;;;;;3.60;2.13;;;8.90;85.40;;;;;;5051323;28;20036;-59
2023/12/14 01:44:14;;;;;;;5.18;3.08;;;8.90;85.30;;;;;;5058423;28;20029;-69
2023/12/14 01:46:40;;;;;;;3.72;2.67;;;8.90;85.20;;;;;;5044480;28;20130;-69
2023/12/14 01:49:06;;;;;;;4.22;2.58;;;8.90;85.30;;;;;;5053202;28;20036;-69
2023/12/14 01:51:33;;;;;;;4.00;2.85;;;8.90;85.20;;;;;;5046217;28;20440;-69
2023/12/14 01:53:59;;;;;;;6.38;2.50;;;8.90;85.20;;;;;;5057047;28;20051;-69
2023/12/14 01:56:25;;;;;;;5.25;2.33;;;8.90;85.20;;;;;;5049571;28;20057;-69
2023/12/14 01:58:50;;;;;;;4.57;2.72;;;8.90;85.20;;;;;;5064236;28;20036;-69
2023/12/14 02:01:40;;;;;;;4.55;2.28;;;8.90;85.20;;;;;;5051416;28;20056;-69
2023/12/14 02:04:07;;;;;;;5.68;2.53;;;8.90;85.20;;;;;;5055588;28;20028;-58
2023/12/14 02:06:33;;;;;;;4.13;2.28;;;8.80;85.10;;;;;;5051878;28;20033;-59
2023/12/14 02:08:58;;;;;;;3.40;2.30;;;8.80;85.10;;;;;;5056973;28;20056;-59
2023/12/14 02:11:24;;;;;;;5.22;2.33;;;8.80;85.10;;;;;;5054403;28;20024;-59
2023/12/14 02:13:50;;;;;;;4.93;2.20;;;8.80;85.10;;;;;;5052698;28;20377;-59
2023/12/14 02:16:16;;;;;;;6.22;3.58;;;8.80;85.20;;;;;;5053401;28;20155;-58
2023/12/14 02:18:41;;;;;;;3.28;2.15;;;8.80;85.20;;;;;;5060225;28;20029;-58
2023/12/14 02:21:07;;;;;;;3.22;2.58;;;8.80;85.30;;;;;;5055800;28;20033;-59
2023/12/14 02:23:34;;;;;;;3.97;2.97;;;8.80;85.20;;;;;;5052086;28;20032;-58
2023/12/14 02:25:59;;;;;;;4.97;2.65;;;8.80;85.70;;;;;;5054707;28;20047;-69
2023/12/14 02:28:25;;;;;;;4.05;2.80;;;8.70;85.00;;;;;;5055389;28;20032;-69
2023/12/14 02:30:51;;;;;;;5.97;2.65;;;8.70;84.90;;;;;;5048787;28;20033;-69
2023/12/14 02:33:16;;;;;;;4.10;3.00;;;8.70;85.10;;;;;;5057708;28;20110;-69
2023/12/14 02:35:43;;;;;;;6.32;3.50;;;8.70;85.00;;;;;;5059127;28;20025;-69
2023/12/14 02:38:09;;;;;;;3.97;2.58;;;8.70;85.40;;;;;;5050289;28;20423;-58
2023/12/14 02:40:35;;;;;;;4.13;2.58;;;8.70;84.90;;;;;;5046770;28;20045;-59
2023/12/14 02:43:00;;;;;;;4.78;2.95;;;8.70;84.90;;;;;;5058278;28;20040;-59
2023/12/14 02:45:26;;;;;;;3.53;1.75;;;8.60;84.90;;;;;;5053663;28;20385;-58
2023/12/14 02:47:54;;;;;;;6.57;3.35;;;8.70;85.00;;;;;;5051204;28;20461;-59
2023/12/14 02:50:19;;;;;;;4.65;2.72;;;8.70;84.90;;;;;;5056310;28;20461;-59
2023/12/14 02:52:45;;;;;;;4.13;2.95;;;8.70;84.90;;;;;;5053531;28;20101;-58
2023/12/14 02:55:11;;;;;;;5.10;3.33;;;8.70;84.80;;;;;;5050189;28;20025;-58
2023/12/14 02:57:36;;;;;;;2.72;1.88;;;8.70;84.80;;;;;;5048831;28;20056;-58
2023/12/14 03:00:02;;;;;;;5.43;2.88;;;8.70;84.80;;;;;;5065721;28;20052;-69
2023/12/14 03:02:28;;;;;;;4.15;3.10;;;8.70;84.70;;;;;;5048465;28;20419;-69
2023/12/14 03:04:54;;;;;;;3.95;2.08;;;8.70;84.60;;;;;;5053354;28;20075;-69
2023/12/14 03:07:20;;;;;;;3.17;2.42;;;8.70;84.60;;;;;;5049412;28;20044;-69
2023/12/14 03:09:45;;;;;;;5.15;2.42;;;8.70;85.10;;;;;;5053287;28;20029;-69
2023/12/14 03:12:11;;;;;;;4.40;3.00;;;8.70;84.60;;;;;;5056082;28;20111;-69
2023/12/14 03:14:37;;;;;;;4.97;2.63;;;8.70;84.50;;;;;;5063001;28;20025;-69
2023/12/14 03:17:03;;;;;;;4.60;2.65;;;8.70;84.50;;;;;;5055295;28;20051;-69
2023/12/14 03:19:29;;;;;;;5.25;2.97;;;8.70;84.50;;;;;;5051423;28;20094;-69
2023/12/14 03:21:55;;;;;;;4.28;3.03;;;8.70;84.50;;;;;;5053367;28;20504;-69
2023/12/14 03:24:21;;;;;;;6.22;2.40;;;8.70;84.40;;;;;;5051152;28;20033;-69
2023/12/14 03:26:46;;;;;;;5.13;3.22;;;8.60;84.50;;;;;;5049702;28;20448;-69
2023/12/14 03:29:13;;;;;;;4.13;2.70;;;8.60;84.50;;;;;;5032835;28;20033;-59
2023/12/14 03:31:39;;;;;;;4.35;2.90;;;8.60;84.40;;;;;;5050456;28;20087;-58
2023/12/14 03:34:05;;;;;;;4.00;2.63;;;8.60;84.50;;;;;;5051179;28;20075;-59
2023/12/14 03:36:31;;;;;;;3.97;2.25;;;8.60;84.50;;;;;;5047442;28;20480;-59
2023/12/14 03:38:57;;;;;;;4.65;2.53;;;8.60;84.50;;;;;;5051069;28;20031;-59
2023/12/14 03:41:22;;;;;;;3.88;2.38;;;8.60;84.40;;;;;;5048115;28;20033;-58
2023/12/14 03:43:48;;;;;;;3.35;2.53;;;8.50;84.40;;;;;;5046499;28;20041;-58
2023/12/14 03:46:14;;;;;;;2.88;2.08;;;8.60;84.50;;;;;;5044976;28;20060;-58
2023/12/14 03:48:40;;;;;;;7.22;2.70;;;8.60;84.40;;;;;;5046893;28;20329;-59
2023/12/14 03:51:06;;;;;;;3.53;2.33;;;8.60;84.40;;;;;;5049984;28;20025;-59
2023/12/14 03:53:32;;;;;;;4.15;2.28;;;8.50;84.30;;;;;;5048372;28;20084;-58
2023/12/14 03:56:00;;;;;;;5.60;2.22;;;8.50;84.50;;;;;;5040802;28;20029;-59
2023/12/14 03:58:26;;;;;;;4.03;2.22;;;8.50;84.30;;;;;;5050542;28;20087;-58
2023/12/14 04:00:52;;;;;;;2.55;1.50;;;8.50;84.30;;;;;;5037221;28;20168;-58
2023/12/14 04:03:18;;;;;;;2.90;2.17;;;8.50;84.30;;;;;;5072641;28;20025;-58
2023/12/14 04:05:44;;;;;;;3.53;2.05;;;8.50;84.20;;;;;;5044618;28;20079;-58
2023/12/14 04:08:10;;;;;;;2.50;1.67;;;8.60;84.30;;;;;;5050062;28;20053;-69
2023/12/14 04:10:36;;;;;;;5.32;2.72;;;8.60;84.20;;;;;;5049054;28;20555;-59
2023/12/14 04:13:01;;;;;;;3.67;2.28;;;8.60;84.20;;;;;;5049311;28;20059;-58
2023/12/14 04:15:27;;;;;;;2.97;1.85;;;8.60;84.10;;;;;;5049046;28;20522;-59
2023/12/14 04:17:53;;;;;;;3.70;2.47;;;8.60;84.10;;;;;;5045239;28;20037;-58
2023/12/14 04:20:19;;;;;;;3.90;2.03;;;8.50;84.00;;;;;;5040627;28;20038;-59
2023/12/14 04:22:45;;;;;;;3.60;2.80;;;8.50;83.90;;;;;;5045032;28;20029;-58
2023/12/14 04:25:11;;;;;;;3.55;2.05;;;8.50;84.10;;;;;;5047133;28;20040;-59
2023/12/14 04:27:37;;;;;;;3.70;1.90;;;8.50;84.10;;;;;;5048774;28;20415;-59
2023/12/14 04:30:04;;;;;;;3.67;2.05;;;8.50;84.00;;;;;;5045930;28;20033;-58
2023/12/14 04:32:30;;;;;;;4.43;2.30;;;8.50;84.20;;;;;;5043388;28;20036;-59
2023/12/14 04:34:56;;;;;;;3.83;1.75;;;8.50;84.10;;;;;;5045421;28;20021;-59
2023/12/14 04:37:21;;;;;;;4.68;2.83;;;8.50;84.10;;;;;;5039682;28;20013;-58
2023/12/14 04:39:47;;;;;;;6.07;2.92;;;8.50;84.10;;;;;;5049903;28;20037;-59
2023/12/14 04:42:12;;;;;;;4.50;3.00;;;8.50;84.10;;;;;;5048114;28;20064;-58
2023/12/14 04:44:39;;;;;;;4.47;2.72;;;8.60;84.10;;;;;;5043669;28;20060;-58
2023/12/14 04:47:04;;;;;;;4.57;2.20;;;8.60;84.10;;;;;;5042755;28;20178;-69
2023/12/14 04:49:30;;;;;;;6.18;2.92;;;8.50;84.10;;;;;;5049321;28;20128;-69
2023/12/14 04:51:56;;;;;;;4.70;3.10;;;8.60;84.00;;;;;;5048736;28;20054;-58
2023/12/14 04:54:21;;;;;;;3.65;1.95;;;8.60;84.00;;;;;;5050366;28;20471;-58
2023/12/14 04:56:47;;;;;;;3.88;2.38;;;8.50;84.00;;;;;;5062283;28;20027;-58
2023/12/14 04:59:13;;;;;;;4.57;2.50;;;8.60;84.00;;;;;;5050500;28;20406;-58
2023/12/14 05:01:38;;;;;;;4.43;2.35;;;8.60;84.00;;;;;;5047218;28;20029;-58
2023/12/14 05:04:04;;;;;;;2.80;2.25;;;8.50;83.90;;;;;;5053377;28;20420;-58
2023/12/14 05:06:32;;;;;;;3.00;2.10;;;8.50;84.00;;;;;;5050119;28;20775;-58
2023/12/14 05:08:58;;;;;;;2.40;1.98;;;8.50;84.10;;;;;;5058351;28;20135;-58
2023/12/14 05:11:24;;;;;;;3.15;2.17;;;8.50;84.10;;;;;;5049330;28;20134;-58
2023/12/14 05:13:50;;;;;;;4.45;2.47;;;8.50;84.00;;;;;;5059257;28;20035;-58
2023/12/14 05:16:16;;;;;;;3.75;2.55;;;8.50;84.10;;;;;;5046148;28;20372;-59
2023/12/14 05:18:42;;;;;;;4.40;3.08;;;8.50;84.00;;;;;;5050473;28;20476;-58
2023/12/14 05:21:08;;;;;;;3.85;3.00;;;8.50;84.00;;;;;;5046674;28;20040;-58
2023/12/14 05:23:33;;;;;;;5.88;2.78;;;8.50;84.00;;;;;;5059310;28;20483;-59
2023/12/14 05:25:59;;;;;;;5.05;2.50;;;8.50;84.00;;;;;;5051524;28;20297;-69
2023/12/14 05:28:25;;;;;;;6.28;2.75;;;8.50;84.00;;;;;;5046218;28;20076;-69
2023/12/14 05:30:50;;;;;;;3.78;2.08;;;8.50;84.00;;;;;;5045900;28;20029;-69
2023/12/14 05:33:16;;;;;;;4.97;2.85;;;8.50;84.00;;;;;;5053820;28;20024;-69
2023/12/14 05:35:42;;;;;;;3.15;2.17;;;8.50;84.00;;;;;;5047968;28;20125;-59
2023/12/14 05:38:08;;;;;;;3.75;2.40;;;8.50;84.00;;;;;;5058747;28;20510;-59
2023/12/14 05:40:34;;;;;;;2.97;2.25;;;8.50;83.90;;;;;;5051378;28;20060;-58
2023/12/14 05:42:59;;;;;;;4.47;3.13;;;8.50;83.90;;;;;;5055977;28;20025;-59
2023/12/14 05:45:25;;;;;;;4.38;2.17;;;8.50;83.90;;;;;;5056797;28;20476;-58
2023/12/14 05:47:51;;;;;;;3.22;2.13;;;8.50;83.90;;;;;;5053115;28;20090;-69
2023/12/14 05:50:16;;;;;;;3.72;2.65;;;8.50;83.80;;;;;;5059480;28;20032;-69
2023/12/14 05:52:42;;;;;;;3.08;2.05;;;8.50;83.80;;;;;;5056304;28;20036;-70
2023/12/14 05:55:12;;;;;;;5.03;2.35;;;8.50;83.70;;;;;;5055795;28;20142;-69
2023/12/14 05:57:38;;;;;;;4.07;2.60;;;8.40;83.60;;;;;;5055530;28;20534;-69
2023/12/14 06:00:07;;;;;;;2.88;2.08;;;8.40;83.70;;;;;;5061182;28;20029;-58
2023/12/14 06:02:33;;;;;;;3.47;2.15;;;8.50;83.80;;;;;;5049725;28;20370;-58
2023/12/14 06:04:58;;;;;;;3.95;1.73;;;8.40;83.80;;;;;;5053304;28;20108;-58
2023/12/14 06:07:25;;;;;;;3.97;2.50;;;8.40;83.80;;;;;;5056849;28;20045;-59
2023/12/14 06:09:50;;;;;;;3.33;2.72;;;8.40;83.80;;;;;;5068402;28;20379;-58
2023/12/14 06:12:16;;;;;;;1.83;1.67;;;8.40;83.90;;;;;;5059950;28;20045;-69
2023/12/14 06:14:42;;;;;;;3.38;2.83;;;8.40;83.90;;;;;;5052512;28;20040;-69
2023/12/14 06:17:08;;;;;;;2.88;2.13;;;8.40;84.00;;;;;;5052299;28;20047;-69
2023/12/14 06:19:33;;;;;;;4.60;1.80;;;8.30;83.90;;;;;;5050720;28;20075;-69
2023/12/14 06:21:59;;;;;;;2.55;1.50;;;8.40;83.90;;;;;;5058108;28;20108;-69
2023/12/14 06:24:24;;;;;;;2.83;1.85;;;8.40;83.90;;;;;;5065900;28;20025;-58
2023/12/14 06:26:50;;;;;;;3.08;1.90;;;8.40;83.80;;;;;;5058040;28;20044;-58
2023/12/14 06:29:16;;;;;;;2.67;2.08;;;8.30;83.80;;;;;;5050950;28;20041;-59
2023/12/14 06:31:42;;;;;;;2.97;1.95;;;8.30;83.90;;;;;;5060197;28;20100;-59
2023/12/14 06:34:08;;;;;;;2.20;2.00;;;8.30;83.90;;;;;;5062383;28;20101;-58
2023/12/14 06:36:34;;;;;;;2.63;2.20;;;8.30;83.80;;;;;;5048571;28;20100;-58
2023/12/14 06:39:00;;;;;;;3.15;1.75;;;8.30;83.80;;;;;;5058649;28;20021;-58
2023/12/14 06:41:27;;;;;;;3.28;1.83;;;8.20;83.70;;;;;;5056259;28;20202;-58
2023/12/14 06:43:54;;;;;;;3.58;2.22;;;8.30;83.80;;;;;;5054576;28;20033;-58
2023/12/14 06:46:20;;;;;;;2.45;1.50;;;8.20;83.70;;;;;;5062707;28;20115;-59
2023/12/14 06:48:46;;;;;;;3.00;1.27;;;8.20;83.70;;;;;;5057510;28;20483;-58
2023/12/14 06:51:12;;;;;;;3.20;2.35;;;8.20;83.80;;;;;;5054510;28;20013;-69
2023/12/14 06:53:41;;;;;;;3.10;1.67;;;8.10;83.60;;;;;;5063541;28;20031;-59
2023/12/14 06:56:11;;;;;;;3.05;1.83;;;8.10;83.50;;;;;;5053056;28;20044;-58
2023/12/14 06:58:41;;;;;;;3.30;1.70;;;8.00;83.60;;;;;;5061569;28;20032;-58
2023/12/14 07:01:07;;;;;;;3.42;1.73;;;8.00;83.60;;;;;;5037344;28;20052;-58
2023/12/14 07:03:33;;;;;;;2.63;1.67;;;8.00;83.60;;;;;;5051387;28;20070;-58
2023/12/14 07:05:59;;;;;;;2.78;1.33;;;8.00;83.50;;;;;;5052963;28;20037;-58
2023/12/14 07:08:25;;;;;;;2.70;1.33;;;8.00;83.40;;;;;;5055946;28;20487;-58
2023/12/14 07:10:50;;;;;;;2.35;1.52;;;8.10;83.20;;;;;;5054423;28;20393;-58
2023/12/14 07:13:16;;;;;;;1.45;1.30;;;8.00;83.00;;;;;;5048033;28;20059;-59
2023/12/14 07:15:42;;;;;;;1.73;1.20;;;8.00;83.10;;;;;;5061827;28;20033;-58
2023/12/14 07:18:07;;;;;;;2.35;1.20;;;8.00;83.20;;;;;;5061205;28;20120;-59
2023/12/14 07:20:33;;;;;;;1.85;1.25;;;8.00;83.00;;;;;;5051446;28;20514;-58
2023/12/14 07:22:59;;;;;;;1.73;1.10;;;8.00;82.90;;;;;;5051704;28;20428;-59
2023/12/14 07:25:24;;;;;;;1.50;1.15;;;8.00;82.80;;;;;;5049373;28;20068;-59
2023/12/14 07:27:50;;;;;;;2.33;1.73;;;8.00;82.80;;;;;;5049984;28;20048;-69
2023/12/14 07:30:16;;;;;;;1.27;1.02;;;8.00;82.70;;;;;;5042994;28;20022;-69
2023/12/14 07:32:42;;;;;;;1.20;0.98;;;8.00;82.60;;;;;;5048288;28;20029;-69
2023/12/14 07:35:08;;;;;;;1.80;1.45;;;8.00;82.50;;;;;;5057730;28;20510;-70
2023/12/14 07:37:36;;;;;;;3.03;1.52;;;8.00;82.40;;;;;;5055288;28;20029;-69
2023/12/14 07:40:03;;;;;;;1.42;1.13;;;8.00;82.40;;;;;;5054352;28;20074;-69
2023/12/14 07:42:28;;;;;;;1.30;1.20;;;8.00;82.40;;;;;;5056216;28;20104;-69
2023/12/14 07:44:54;;;;;;;6.18;1.83;;;8.00;82.30;;;;;;5055900;28;20108;-69
2023/12/14 07:47:20;;;;;;;1.75;1.40;;;8.00;82.40;;;;;;5054071;28;20430;-69
2023/12/14 07:49:45;;;;;;;1.98;1.08;;;7.90;82.40;;;;;;5055454;28;20040;-69
2023/12/14 07:52:13;;;;;;;3.63;1.63;;;7.90;82.50;;;;;;5056233;28;20081;-69
2023/12/14 07:54:39;;;;;;;2.35;1.45;;;7.90;82.50;;;;;;5060811;28;20365;-58
2023/12/14 07:57:05;;;;;;;1.52;1.25;;;7.90;82.50;;;;;;5056283;28;20031;-58
2023/12/14 07:59:31;;;;;;;2.25;1.33;;;7.90;82.30;;;;;;5054325;28;20028;-59
2023/12/14 08:01:56;;;;;;;2.00;1.20;;;7.90;82.20;;;;;;5053889;28;20484;-58
2023/12/14 08:04:22;;;;;;;1.25;1.02;;;7.90;82.30;;;;;;5061360;28;20657;-59
2023/12/14 08:06:49;;;;;;;3.40;1.65;;;7.90;82.20;;;;;;5055561;28;20114;-69
2023/12/14 08:09:14;;;;;;;1.70;1.45;;;7.80;82.30;;;;;;5048193;28;20123;-69
2023/12/14 08:11:40;;;;;;;1.77;1.25;;;7.90;82.40;;;;;;5062725;28;20302;-69
2023/12/14 08:14:06;;;;;;;2.08;1.42;;;7.90;82.30;;;;;;5061202;28;20029;-69
2023/12/14 08:16:31;;;;;;;1.42;0.98;;;7.90;82.30;;;;;;5055291;28;20104;-69
2023/12/14 08:18:57;;;;;;;1.30;1.05;;;7.90;82.10;;;;;;5051511;28;20116;-69
2023/12/14 08:21:23;;;;;;;2.47;1.48;;;7.90;81.90;;;;;;5061524;28;20060;-69
2023/12/14 08:23:49;;;;;;;2.17;1.50;;;7.90;82.00;;;;;;5055763;28;20029;-69
2023/12/14 08:26:14;;;;;;;2.33;1.40;;;7.90;82.10;;;;;;5049273;28;20056;-69
2023/12/14 08:28:40;;;;;;;1.13;1.02;;;7.90;82.00;;;;;;5052960;28;20484;-69
2023/12/14 08:31:06;;;;;;;3.22;1.27;;;7.90;81.90;;;;;;5056901;28;20418;-69
2023/12/14 08:33:32;;;;;;;1.95;1.52;;;7.90;81.80;;;;;;5052335;28;20024;-69
2023/12/14 08:35:58;;;;;;;1.52;1.25;;;7.90;81.70;;;;;;5046742;28;20036;-69
2023/12/14 08:38:24;;;;;;;1.60;1.17;;;7.90;81.70;;;;;;5048351;28;20368;-69
2023/12/14 08:40:50;;;;;;;0.90;0.88;;;7.90;81.80;;;;;;5046120;28;20033;-69
2023/12/14 08:43:16;;;;;;;2.63;1.48;;;8.00;81.80;;;;;;5042827;28;20436;-70
2023/12/14 08:45:42;;;;;;;1.85;0.95;;;8.00;81.70;;;;;;5090436;28;20041;-69
2023/12/14 08:48:08;;;;;;;2.63;1.52;;;8.00;81.50;;;;;;5049456;28;20074;-69
2023/12/14 08:50:33;;;;;;;1.52;1.20;;;8.00;81.60;;;;;;5057559;28;20509;-68
2023/12/14 08:52:59;;;;;;;1.23;1.13;;;8.00;81.50;;;;;;5043458;28;20115;-69
2023/12/14 08:55:25;;;;;;;2.10;1.23;;;8.00;81.60;;;;;;5048501;28;20029;-70
2023/12/14 08:57:51;;;;;;;2.00;1.20;;;8.00;81.50;;;;;;5047481;28;20064;-68
2023/12/14 09:00:20;;;;;;;2.72;1.60;;;8.10;81.60;;;;;;5050117;28;20033;-68
2023/12/14 09:02:46;;;;;;;1.50;1.25;;;8.10;81.60;;;;;;5047632;28;20447;-69
2023/12/14 09:05:13;;;;;;;1.75;1.10;;;8.00;81.50;;;;;;5044800;28;20024;-70
2023/12/14 09:07:39;;;;;;;1.25;1.13;;;8.00;81.50;;;;;;5048429;28;20049;-69
2023/12/14 09:10:06;;;;;;;3.33;1.63;;;8.00;81.60;;;;;;5049960;28;20021;-70
2023/12/14 09:12:33;;;;;;;1.80;1.25;;;8.00;81.60;;;;;;5042724;28;20527;-70
2023/12/14 09:14:59;;;;;;;1.45;1.08;;;8.00;81.60;;;;;;5050647;28;20021;-69
2023/12/14 09:17:25;;;;;;;1.13;1.02;;;8.00;81.40;;;;;;5053292;28;20036;-68
2023/12/14 09:19:50;;;;;;;3.35;1.33;;;8.10;81.50;;;;;;5050014;28;20028;-68
2023/12/14 09:22:17;;;;;;;2.90;1.63;;;8.10;81.60;;;;;;5055070;28;20025;-69
2023/12/14 09:24:43;;;;;;;5.32;1.42;;;8.10;82.20;;;;;;5056504;28;20440;-69
2023/12/14 09:27:08;;;;;;;2.95;1.73;;;8.10;81.60;;;;;;5048795;28;20111;-68
2023/12/14 09:29:34;;;;;;;1.77;1.60;;;8.10;81.60;;;;;;5049508;28;20051;-69
2023/12/14 09:32:00;;;;;;;1.30;1.20;;;8.10;81.60;;;;;;5051796;28;20112;-60
2023/12/14 09:34:25;;;;;;;2.80;1.40;;;8.10;81.60;;;;;;5051809;28;20017;-69
2023/12/14 09:36:52;;;;;;;2.22;1.63;;;8.10;81.60;;;;;;5051496;28;20031;-70
2023/12/14 09:39:19;;;;;;;4.63;1.35;;;8.20;81.60;;;;;;5052441;28;20036;-60
2023/12/14 09:41:46;;;;;;;1.30;0.93;;;8.20;81.70;;;;;;5052221;28;20037;-60
2023/12/14 09:44:12;;;;;;;1.42;1.30;;;8.20;81.60;;;;;;5049291;28;20030;-59
2023/12/14 09:46:38;;;;;;;2.75;2.15;;;8.20;81.60;;;;;;5055490;28;20036;-59
2023/12/14 09:49:05;;;;;;;2.03;1.40;;;8.20;81.50;;;;;;5048112;28;20098;-59
2023/12/14 09:51:31;;;;;;;3.30;1.35;;;8.20;81.50;;;;;;5041576;28;20036;-58
2023/12/14 09:53:59;;;;;;;1.67;1.45;;;8.20;81.50;;;;;;5045234;28;20029;-59
2023/12/14 09:56:26;;;;;;;2.63;1.40;;;8.20;81.50;;;;;;5051146;28;20396;-59
2023/12/14 09:58:52;;;;;;;2.38;1.50;;;8.10;81.50;;;;;;5044842;28;20033;-60
2023/12/14 10:01:26;;;;;;;2.08;1.60;;;8.20;81.60;;;;;;5053615;28;20032;-69
2023/12/14 10:04:12;;;;;;;2.05;1.40;;;8.20;81.70;;;;;;5052905;28;20805;-70
2023/12/14 10:06:39;;;;;;;2.55;2.20;;;8.20;81.60;;;;;;5053155;28;20457;-69
2023/12/14 10:09:18;;;;;;;2.95;1.90;;;8.10;81.40;;;;;;5053560;28;20055;-69
2023/12/14 10:11:44;;;;;;;1.98;1.45;;;8.10;81.50;;;;;;5048863;28;20546;-59
2023/12/14 10:14:21;;;;;;;2.53;1.92;;;8.10;81.60;;;;;;5054117;28;20040;-60
2023/12/14 10:16:49;;;;;;;2.38;1.52;;;8.20;81.70;;;;;;5043780;28;20068;-59
2023/12/14 10:19:17;;;;;;;5.18;1.63;;;8.20;81.70;;;;;;5052782;28;20090;-59
2023/12/14 10:21:43;;;;;;;2.70;1.73;;;8.20;81.50;;;;;;5048483;28;20037;-59
2023/12/14 10:24:08;;;;;;;2.22;1.73;;;8.20;81.50;;;;;;5043842;28;20047;-59
2023/12/14 10:26:35;;;;;;;5.57;1.83;;;8.20;81.50;;;;;;5033978;28;20120;-59
2023/12/14 10:29:04;;;;;;;2.92;2.05;;;8.20;81.50;;;;;;5046859;28;20079;-59
2023/12/14 10:31:31;;;;;;;2.90;1.52;;;8.20;81.70;;;;;;5048967;28;20057;-59
2023/12/14 10:33:57;;;;;;;3.35;1.77;;;8.10;81.60;;;;;;5052734;28;20562;-69
2023/12/14 10:36:25;;;;;;;3.65;1.75;;;8.20;81.70;;;;;;5035393;28;20384;-69
2023/12/14 10:38:57;;;;;;;2.67;1.48;;;8.20;81.70;;;;;;5048356;28;20107;-59
2023/12/14 10:41:23;;;;;;;2.70;2.13;;;8.20;81.60;;;;;;5051797;28;20451;-59
2023/12/14 10:43:51;;;;;;;2.60;1.52;;;8.20;81.70;;;;;;5050652;28;20036;-59
2023/12/14 10:46:19;;;;;;;2.83;1.70;;;8.20;81.60;;;;;;5049324;28;20041;-59
2023/12/14 10:48:47;;;;;;;2.20;1.67;;;8.20;81.50;;;;;;5037365;28;20445;-69
2023/12/14 10:51:14;;;;;;;3.70;2.17;;;8.20;81.60;;;;;;5041786;28;20030;-59
2023/12/14 10:53:46;;;;;;;3.45;1.77;;;8.10;81.60;;;;;;5050842;28;20052;-59
2023/12/14 10:56:13;;;;;;;3.25;1.70;;;8.10;81.60;;;;;;5047059;28;20064;-59
2023/12/14 10:58:49;;;;;;;3.95;2.20;;;8.10;81.60;;;;;;5040320;28;20057;-59
2023/12/14 11:01:20;;;;;;;2.05;1.73;;;8.20;81.70;;;;;;5032744;28;20048;-58
2023/12/14 11:03:48;;;;;;;2.42;2.10;;;8.20;81.70;;;;;;5043833;28;20078;-58
2023/12/14 11:06:30;;;;;;;2.10;1.48;;;8.10;81.70;;;;;;5047351;28;20036;-64
2023/12/14 11:09:06;;;;;;;2.70;2.05;;;8.20;81.70;;;;;;5046209;28;20052;-62
2023/12/14 11:11:43;;;;;;;5.43;2.13;;;8.20;81.80;;;;;;5048271;28;20029;-68
2023/12/14 11:14:12;;;;;;;4.53;2.33;;;8.20;81.80;;;;;;5044358;28;20036;-70
2023/12/14 11:16:44;;;;;;;6.22;2.30;;;8.20;81.80;;;;;;5043939;28;20563;-68
2023/12/14 11:19:22;;;;;;;3.00;1.77;;;8.30;81.80;;;;;;5046457;28;20488;-69
2023/12/14 11:21:56;;;;;;;2.38;1.58;;;8.30;81.70;;;;;;5048042;28;20097;-69
2023/12/14 11:24:22;;;;;;;3.72;2.20;;;8.30;81.70;;;;;;5048560;28;20033;-70
2023/12/14 11:26:51;;;;;;;3.70;1.75;;;8.30;81.70;;;;;;5052310;28;20530;-69
2023/12/14 11:29:19;;;;;;;3.83;1.65;;;8.30;81.70;;;;;;5046511;28;20389;-59
2023/12/14 11:31:44;;;;;;;6.70;2.40;;;8.30;81.60;;;;;;5047185;28;20451;-59
2023/12/14 11:34:11;;;;;;;4.40;2.50;;;8.30;81.60;;;;;;5047487;28;20048;-60
2023/12/14 11:36:39;;;;;;;4.30;2.33;;;8.30;81.60;;;;;;5049568;28;20454;-59
2023/12/14 11:39:05;;;;;;;3.95;1.98;;;8.30;81.70;;;;;;5054475;28;20112;-59
2023/12/14 11:41:33;;;;;;;2.55;1.95;;;8.40;82.40;;;;;;5034571;28;20091;-58
2023/12/14 11:43:59;;;;;;;2.67;1.70;;;8.40;81.70;;;;;;5035155;28;20041;-69
2023/12/14 11:46:25;;;;;;;3.78;1.48;;;8.40;81.60;;;;;;5040335;28;20140;-69
2023/12/14 11:48:51;;;;;;;11.50;2.50;;;8.40;81.50;;;;;;5031695;28;20036;-69
2023/12/14 11:51:17;;;;;;;2.67;2.00;;;8.40;81.40;;;;;;5047114;28;20121;-69
2023/12/14 11:53:49;;;;;;;3.65;1.63;;;8.40;81.50;;;;;;5051699;28;20108;-69
2023/12/14 11:56:17;;;;;;;4.72;2.05;;;8.40;81.40;;;;;;5028982;28;20080;-69
2023/12/14 11:58:47;;;;;;;7.07;2.25;;;8.40;81.40;;;;;;5041622;28;20518;-69
2023/12/14 12:01:12;;;;;;;2.90;1.55;;;8.40;81.40;;;;;;5042684;28;20032;-69
2023/12/14 12:03:38;;;;;;;7.03;2.28;;;8.40;81.40;;;;;;5035287;28;20029;-59
2023/12/14 12:06:04;;;;;;;2.53;1.77;;;8.30;81.40;;;;;;5034167;28;20098;-59
2023/12/14 12:08:30;;;;;;;5.15;2.03;;;8.30;81.50;;;;;;5043338;28;20049;-59
2023/12/14 12:10:57;;;;;;;3.95;1.83;;;8.40;81.60;;;;;;5038420;28;20116;-59
2023/12/14 12:13:22;;;;;;;2.63;1.67;;;8.30;81.40;;;;;;5041818;28;20521;-59
2023/12/14 12:15:48;;;;;;;2.92;1.95;;;8.30;81.40;;;;;;5034260;28;20405;-59
2023/12/14 12:18:16;;;;;;;4.00;2.05;;;8.30;81.40;;;;;;5041793;28;20094;-58
2023/12/14 12:20:42;;;;;;;3.45;2.22;;;8.40;81.30;;;;;;5042735;28;20062;-59
2023/12/14 12:23:08;;;;;;;4.55;2.22;;;8.40;81.30;;;;;;5039830;28;20048;-59
2023/12/14 12:25:34;;;;;;;3.30;1.73;;;8.40;81.10;;;;;;5044313;28;20508;-59
2023/12/14 12:28:01;;;;;;;4.43;2.33;;;8.50;81.10;;;;;;5030555;28;20033;-59
2023/12/14 12:30:27;;;;;;;4.22;1.77;;;8.50;81.10;;;;;;5049926;28;20483;-59
2023/12/14 12:32:55;;;;;;;4.85;2.88;;;8.50;80.90;;;;;;5034386;28;20373;-60
2023/12/14 12:35:22;;;;;;;1.55;1.30;;;8.60;80.90;;;;;;5036593;28;20033;-59
2023/12/14 12:37:53;;;;;;;1.73;1.30;;;8.60;80.80;;;;;;5046269;28;20047;-60
2023/12/14 12:40:19;;;;;;;3.45;1.63;;;8.60;80.80;;;;;;5047185;28;20021;-59
2023/12/14 12:42:48;;;;;;;3.15;1.50;;;8.60;80.80;;;;;;5043641;28;20062;-59
2023/12/14 12:45:15;;;;;;;2.05;1.52;;;8.60;80.70;;;;;;5034440;28;20026;-59
2023/12/14 12:47:41;;;;;;;2.80;1.50;;;8.60;80.60;;;;;;5046007;28;20029;-59
2023/12/14 12:50:07;;;;;;;2.85;1.75;;;8.60;80.50;;;;;;5045826;28;20044;-69
2023/12/14 12:52:33;;;;;;;2.53;1.63;;;8.70;80.50;;;;;;5050100;28;20031;-69
2023/12/14 12:55:00;;;;;;;2.50;2.17;;;8.70;80.40;;;;;;5046973;28;20021;-59